createdAt,value
2022-12-22T00:02:06.842Z,99395.16
2022-12-22T00:04:53.048Z,99384.91
2022-12-22T00:07:39.219Z,99383.41
2022-12-22T00:10:25.741Z,99387.41
2022-12-22T00:13:11.880Z,99382.94
2022-12-22T00:15:57.681Z,99383.91
2022-12-22T00:18:45.241Z,99378.47
2022-12-22T00:21:32.089Z,99385.75
2022-12-22T00:24:18.348Z,99382.50
2022-12-22T00:27:05.111Z,99374.13
2022-12-22T00:29:57.503Z,99380.75
2022-12-22T00:32:53.325Z,99382.38
2022-12-22T00:35:43.292Z,99393.94
2022-12-22T00:38:36.855Z,99380.47
2022-12-22T00:41:23.816Z,99376.72
2022-12-22T00:44:10.058Z,99381.56
2022-12-22T00:46:59.300Z,99381.34
2022-12-22T00:49:48.143Z,99383.41
2022-12-22T00:52:36.072Z,99371.28
2022-12-22T00:55:31.064Z,99374.16
2022-12-22T00:58:18.123Z,99392.22
2022-12-22T01:01:04.307Z,99396.72
2022-12-22T01:03:50.410Z,99396.31
2022-12-22T01:06:36.231Z,99387.22
2022-12-22T01:09:24.146Z,99375.97
2022-12-22T01:12:10.273Z,99369.63
2022-12-22T01:14:56.176Z,99371.03
2022-12-22T01:17:41.914Z,99381.69
2022-12-22T01:20:28.394Z,99368.50
2022-12-22T01:23:14.578Z,99370.72
2022-12-22T01:26:00.868Z,99370.66
2022-12-22T01:28:46.803Z,99363.03
2022-12-22T01:31:46.716Z,99362.34
2022-12-22T01:34:32.643Z,99369.63
2022-12-22T01:37:18.783Z,99379.16
2022-12-22T01:40:04.956Z,99382.03
2022-12-22T01:42:52.973Z,99380.91
2022-12-22T01:45:41.252Z,99380.41
2022-12-22T01:48:35.472Z,99382.50
2022-12-22T01:51:25.609Z,99392.75
2022-12-22T01:54:12.751Z,99384.69
2022-12-22T01:56:59.309Z,99373.84
2022-12-22T01:59:45.479Z,99377.88
2022-12-22T02:02:32.064Z,99377.88
2022-12-22T02:05:20.353Z,99369.00
2022-12-22T02:08:21.820Z,99364.56
2022-12-22T02:11:59.127Z,99351.47
2022-12-22T02:15:31.858Z,99352.28
2022-12-22T02:18:38.168Z,99361.06
2022-12-22T02:21:32.074Z,99357.53
2022-12-22T02:24:55.598Z,99357.72
2022-12-22T02:27:43.606Z,99369.81
2022-12-22T02:30:30.670Z,99376.59
2022-12-22T02:33:17.631Z,99348.38
2022-12-22T02:36:30.551Z,99366.31
2022-12-22T02:39:39.504Z,99370.00
2022-12-22T02:42:42.933Z,99365.81
2022-12-22T02:45:50.838Z,99371.84
2022-12-22T02:48:59.821Z,99357.53
2022-12-22T02:51:48.896Z,99361.94
2022-12-22T02:54:36.660Z,99360.53
2022-12-22T02:57:25.262Z,99357.53
2022-12-22T03:00:11.427Z,99363.88
2022-12-22T03:02:57.558Z,99362.53
2022-12-22T03:05:43.577Z,99350.22
2022-12-22T03:08:29.298Z,99355.09
2022-12-22T03:11:15.459Z,99353.81
2022-12-22T03:14:01.386Z,99355.44
2022-12-22T03:16:47.397Z,99353.25
2022-12-22T03:19:33.340Z,99345.59
2022-12-22T03:22:19.235Z,99347.50
2022-12-22T03:25:04.916Z,99337.47
2022-12-22T03:27:32.656Z,99339.88
2022-12-22T03:29:59.900Z,99323.56
2022-12-22T03:32:27.423Z,99343.91
2022-12-22T03:34:54.818Z,99348.66
2022-12-22T03:37:22.409Z,99342.91
2022-12-22T03:39:49.656Z,99330.97
2022-12-22T03:42:35.602Z,99327.59
2022-12-22T03:45:21.394Z,99333.44
2022-12-22T03:47:48.979Z,99330.66
2022-12-22T03:50:16.285Z,99345.97
2022-12-22T03:52:43.853Z,99341.91
2022-12-22T03:55:11.283Z,99333.56
2022-12-22T03:57:38.817Z,99332.47
2022-12-22T04:00:06.953Z,99312.66
2022-12-22T04:02:39.695Z,99325.31
2022-12-22T04:05:07.624Z,99321.28
2022-12-22T04:07:35.156Z,99317.44
2022-12-22T04:10:21.178Z,99330.28
2022-12-22T04:12:55.123Z,99338.47
2022-12-22T04:15:26.879Z,99330.63
2022-12-22T04:17:55.095Z,99327.06
2022-12-22T04:20:24.160Z,99326.97
2022-12-22T04:22:51.703Z,99321.13
2022-12-22T04:25:19.180Z,99325.44
2022-12-22T04:27:46.822Z,99317.56
2022-12-22T04:30:15.086Z,99330.78
2022-12-22T04:32:42.925Z,99321.25
2022-12-22T04:35:11.100Z,99334.00
2022-12-22T04:37:38.667Z,99334.00
2022-12-22T04:40:06.646Z,99330.13
2022-12-22T04:42:34.249Z,99324.13
2022-12-22T04:45:01.485Z,99325.03
2022-12-22T04:47:29.033Z,99314.38
2022-12-22T04:49:56.579Z,99319.28
2022-12-22T04:52:24.167Z,99319.16
2022-12-22T04:54:51.378Z,99319.03
2022-12-22T04:57:19.720Z,99312.41
2022-12-22T04:59:47.447Z,99317.16
2022-12-22T05:02:15.193Z,99328.69
2022-12-22T05:04:42.523Z,99319.41
2022-12-22T05:07:10.136Z,99329.81
2022-12-22T05:09:37.454Z,99317.47
2022-12-22T05:12:25.359Z,99326.56
2022-12-22T05:14:53.078Z,99326.97
2022-12-22T05:17:20.584Z,99328.84
2022-12-22T05:19:47.943Z,99323.91
2022-12-22T05:22:15.593Z,99319.53
2022-12-22T05:24:42.844Z,99337.22
2022-12-22T05:27:11.704Z,99317.81
2022-12-22T05:29:39.039Z,99319.50
2022-12-22T05:32:06.639Z,99311.66
2022-12-22T05:34:33.954Z,99314.09
2022-12-22T05:37:01.718Z,99311.28
2022-12-22T05:39:29.046Z,99307.91
2022-12-22T05:41:56.591Z,99299.13
2022-12-22T05:44:23.823Z,99304.78
2022-12-22T05:46:54.384Z,99291.84
2022-12-22T05:49:21.692Z,99310.63
2022-12-22T05:51:50.002Z,99300.50
2022-12-22T05:54:17.277Z,99288.28
2022-12-22T05:56:44.850Z,99310.38
2022-12-22T05:59:12.477Z,99297.22
2022-12-22T06:01:40.124Z,99314.63
2022-12-22T06:04:07.533Z,99317.81
2022-12-22T06:06:35.093Z,99308.09
2022-12-22T06:09:02.373Z,99304.38
2022-12-22T06:11:29.926Z,99305.13
2022-12-22T06:13:57.272Z,99297.84
2022-12-22T06:16:24.879Z,99304.63
2022-12-22T06:18:52.235Z,99304.81
2022-12-22T06:21:19.825Z,99311.38
2022-12-22T06:23:47.159Z,99297.22
2022-12-22T06:26:14.693Z,99298.78
2022-12-22T06:28:41.895Z,99294.94
2022-12-22T06:31:09.586Z,99300.25
2022-12-22T06:33:37.010Z,99302.28
2022-12-22T06:36:06.295Z,99309.75
2022-12-22T06:38:34.526Z,99313.13
2022-12-22T06:41:02.341Z,99311.09
2022-12-22T06:43:29.723Z,99318.44
2022-12-22T06:45:57.370Z,99314.75
2022-12-22T06:48:24.793Z,99321.13
2022-12-22T06:50:52.363Z,99311.38
2022-12-22T06:53:19.615Z,99307.53
2022-12-22T06:55:47.237Z,99313.75
2022-12-22T06:58:14.496Z,99306.34
2022-12-22T07:00:43.218Z,99304.63
2022-12-22T07:03:10.651Z,99300.59
2022-12-22T07:05:38.373Z,99288.38
2022-12-22T07:08:08.887Z,99293.22
2022-12-22T07:10:55.926Z,99300.91
2022-12-22T07:13:24.523Z,99291.16
2022-12-22T07:15:59.493Z,99271.22
2022-12-22T07:18:32.999Z,99287.28
2022-12-22T07:21:02.176Z,99283.53
2022-12-22T07:23:30.396Z,99273.72
2022-12-22T07:25:58.845Z,99266.38
2022-12-22T07:28:26.948Z,99271.59
2022-12-22T07:30:55.696Z,99270.44
2022-12-22T07:33:23.389Z,99269.47
2022-12-22T07:36:11.740Z,99271.69
2022-12-22T07:38:41.976Z,99271.22
2022-12-22T07:41:29.671Z,99270.81
2022-12-22T07:43:59.197Z,99269.59
2022-12-22T07:46:29.338Z,99261.00
2022-12-22T07:49:15.335Z,99266.22
2022-12-22T07:51:43.304Z,99276.78
2022-12-22T07:54:13.750Z,99259.25
2022-12-22T07:56:42.271Z,99256.31
2022-12-22T07:59:10.896Z,99257.34
2022-12-22T08:01:40.095Z,99239.38
2022-12-22T08:04:12.477Z,99247.94
2022-12-22T08:06:40.728Z,99226.84
2022-12-22T08:09:08.958Z,99234.44
2022-12-22T08:11:36.807Z,99241.38
2022-12-22T08:14:04.122Z,99237.41
2022-12-22T08:16:31.951Z,99239.13
2022-12-22T08:18:59.258Z,99226.59
2022-12-22T08:21:26.868Z,99230.94
2022-12-22T08:23:54.122Z,99225.28
2022-12-22T08:26:40.800Z,99236.84
2022-12-22T08:29:13.942Z,99229.00
2022-12-22T08:31:42.106Z,99231.19
2022-12-22T08:34:13.022Z,99227.81
2022-12-22T08:36:44.976Z,99221.19
2022-12-22T08:39:13.380Z,99222.28
2022-12-22T08:41:50.207Z,99209.44
2022-12-22T08:44:22.995Z,99206.56
2022-12-22T08:46:52.702Z,99209.47
2022-12-22T08:49:20.329Z,99210.09
2022-12-22T08:51:48.037Z,99209.94
2022-12-22T08:54:15.726Z,99205.63
2022-12-22T08:56:44.252Z,99215.16
2022-12-22T08:59:12.598Z,99211.91
2022-12-22T09:01:48.248Z,99201.53
2022-12-22T09:04:19.797Z,99196.63
2022-12-22T09:06:48.446Z,99206.75
2022-12-22T09:09:16.739Z,99195.94
2022-12-22T09:11:44.458Z,99200.72
2022-12-22T09:14:12.737Z,99188.50
2022-12-22T09:16:40.883Z,99182.03
2022-12-22T09:19:08.955Z,99191.56
2022-12-22T09:21:36.602Z,99180.91
2022-12-22T09:24:07.783Z,99192.00
2022-12-22T09:26:36.172Z,99187.88
2022-12-22T09:29:04.217Z,99182.31
2022-12-22T09:31:32.574Z,99177.53
2022-12-22T09:34:00.521Z,99189.34
2022-12-22T09:36:31.014Z,99191.81
2022-12-22T09:38:58.517Z,99181.44
2022-12-22T09:41:35.146Z,99182.56
2022-12-22T09:44:20.124Z,99172.06
2022-12-22T09:46:47.965Z,99175.59
2022-12-22T09:49:18.694Z,99179.66
2022-12-22T09:52:22.807Z,99179.25
2022-12-22T09:54:50.800Z,99150.31
2022-12-22T09:57:18.579Z,99163.94
2022-12-22T09:59:45.993Z,99164.03
2022-12-22T10:02:34.915Z,99157.56
2022-12-22T10:05:31.093Z,99151.09
2022-12-22T10:08:02.033Z,99140.00
2022-12-22T10:10:31.637Z,99154.19
2022-12-22T10:13:02.107Z,99150.88
2022-12-22T10:15:37.926Z,99148.59
2022-12-22T10:18:15.141Z,99165.59
2022-12-22T10:20:45.570Z,99159.84
2022-12-22T10:23:29.009Z,99152.53
2022-12-22T10:28:47.855Z,99133.56
2022-12-22T10:31:21.846Z,99142.69
2022-12-22T10:33:52.576Z,99137.03
2022-12-22T10:36:31.667Z,99139.19
2022-12-22T10:39:03.219Z,99129.28
2022-12-22T10:41:47.061Z,99132.88
2022-12-22T10:44:17.295Z,99132.03
2022-12-22T10:46:51.199Z,99125.22
2022-12-22T10:49:23.174Z,99113.75
2022-12-22T10:52:13.719Z,99104.97
2022-12-22T10:54:42.876Z,99096.06
2022-12-22T10:57:18.893Z,99094.72
2022-12-22T11:00:00.995Z,99090.06
2022-12-22T11:02:38.956Z,99103.47
2022-12-22T11:05:09.562Z,99104.81
2022-12-22T11:07:47.491Z,99097.28
2022-12-22T11:10:15.093Z,99110.59
2022-12-22T11:13:02.518Z,99090.94
2022-12-22T11:15:51.876Z,99081.09
2022-12-22T11:18:34.135Z,99068.25
2022-12-22T11:21:24.515Z,99073.38
2022-12-22T11:24:21.704Z,99063.13
2022-12-22T11:27:27.913Z,99056.09
2022-12-22T11:30:07.840Z,99051.16
2022-12-22T11:32:54.564Z,99046.09
2022-12-22T11:36:01.613Z,99049.72
2022-12-22T11:38:48.249Z,99045.50
2022-12-22T11:41:34.924Z,99035.38
2022-12-22T11:44:24.380Z,99039.09
2022-12-22T11:47:00.674Z,99024.66
2022-12-22T11:49:40.564Z,99034.72
2022-12-22T11:52:13.973Z,99021.66
2022-12-22T11:54:44.866Z,99025.59
2022-12-22T11:57:27.112Z,99013.09
2022-12-22T12:00:04.081Z,99017.13
2022-12-22T12:03:06.966Z,99006.75
2022-12-22T12:05:54.629Z,99007.56
2022-12-22T12:08:26.842Z,99006.19
2022-12-22T12:11:18.560Z,98999.78
2022-12-22T12:14:13.325Z,98992.19
2022-12-22T12:16:49.566Z,98990.41
2022-12-22T12:19:28.266Z,98989.53
2022-12-22T12:22:03.979Z,98981.22
2022-12-22T12:24:55.434Z,98980.16
2022-12-22T12:27:44.373Z,98984.53
2022-12-22T12:33:21.492Z,98972.59
2022-12-22T12:35:53.150Z,98971.03
2022-12-22T12:41:45.680Z,98942.59
2022-12-22T12:44:15.969Z,98950.06
2022-12-22T12:46:54.194Z,98952.00
2022-12-22T12:49:58.724Z,98947.09
2022-12-22T12:52:52.158Z,98953.25
2022-12-22T12:55:32.848Z,98953.69
2022-12-22T12:58:04.708Z,98949.78
2022-12-22T13:00:32.607Z,98939.13
2022-12-22T13:03:00.872Z,98949.47
2022-12-22T13:06:02.702Z,98940.78
2022-12-22T13:08:31.956Z,98938.81
2022-12-22T13:10:59.517Z,98926.47
2022-12-22T13:13:26.717Z,98920.75
2022-12-22T13:16:00.530Z,98925.94
2022-12-22T13:18:30.805Z,98923.00
2022-12-22T13:21:42.062Z,98916.97
2022-12-22T13:26:47.220Z,98924.53
2022-12-22T13:29:20.505Z,98918.06
2022-12-22T13:32:02.083Z,98923.00
2022-12-22T13:34:51.363Z,98912.31
2022-12-22T13:37:27.622Z,98917.50
2022-12-22T13:40:15.647Z,98918.03
2022-12-22T13:42:47.828Z,98915.41
2022-12-22T13:45:32.744Z,98913.84
2022-12-22T13:48:02.477Z,98908.00
2022-12-22T13:50:34.673Z,98916.00
2022-12-22T13:53:04.054Z,98908.84
2022-12-22T13:55:33.196Z,98912.22
2022-12-22T13:58:29.949Z,98905.16
2022-12-22T14:01:17.378Z,98895.13
2022-12-22T14:04:00.223Z,98887.69
2022-12-22T14:06:30.229Z,98885.28
2022-12-22T14:09:12.821Z,98880.50
2022-12-22T14:11:47.092Z,98863.97
2022-12-22T14:14:23.797Z,98877.88
2022-12-22T14:16:54.063Z,98891.16
2022-12-22T14:19:23.738Z,98882.22
2022-12-22T14:22:10.087Z,98880.25
2022-12-22T14:24:44.823Z,98875.06
2022-12-22T14:27:36.522Z,98871.03
2022-12-22T14:30:07.773Z,98863.44
2022-12-22T14:32:41.559Z,98871.00
2022-12-22T14:35:21.336Z,98874.09
2022-12-22T14:38:13.599Z,98862.59
2022-12-22T14:40:43.661Z,98875.38
2022-12-22T14:43:34.737Z,98875.38
2022-12-22T14:46:09.021Z,98879.56
2022-12-22T14:48:45.861Z,98871.81
2022-12-22T14:51:20.169Z,98859.53
2022-12-22T14:53:56.761Z,98865.13
2022-12-22T14:56:26.785Z,98858.13
2022-12-22T14:59:12.411Z,98853.09
2022-12-22T15:01:40.224Z,98857.25
2022-12-22T15:04:17.427Z,98856.28
2022-12-22T15:06:48.140Z,98856.72
2022-12-22T15:09:15.357Z,98853.50
2022-12-22T15:12:11.269Z,98856.44
2022-12-22T15:14:39.226Z,98864.44
2022-12-22T15:17:15.731Z,98857.81
2022-12-22T15:19:43.076Z,98860.22
2022-12-22T15:22:12.413Z,98851.94
2022-12-22T15:24:39.744Z,98846.38
2022-12-22T15:27:08.587Z,98850.41
2022-12-22T15:29:35.897Z,98838.22
2022-12-22T15:32:03.739Z,98849.28
2022-12-22T15:34:32.087Z,98837.81
2022-12-22T15:36:59.639Z,98832.91
2022-12-22T15:39:26.949Z,98837.78
2022-12-22T15:41:54.898Z,98838.78
2022-12-22T15:44:22.650Z,98834.44
2022-12-22T15:46:57.775Z,98833.72
2022-12-22T15:49:28.054Z,98849.28
2022-12-22T15:51:59.324Z,98831.88
2022-12-22T15:54:28.136Z,98832.16
2022-12-22T15:56:56.196Z,98830.09
2022-12-22T15:59:25.808Z,98823.94
2022-12-22T16:02:00.486Z,98818.75
2022-12-22T16:04:29.561Z,98804.31
2022-12-22T16:06:59.207Z,98807.53
2022-12-22T16:09:32.648Z,98816.47
2022-12-22T16:12:00.397Z,98812.91
2022-12-22T16:14:29.276Z,98817.28
2022-12-22T16:16:58.896Z,98818.09
2022-12-22T16:19:26.159Z,98814.84
2022-12-22T16:21:54.290Z,98815.50
2022-12-22T16:24:36.079Z,98815.53
2022-12-22T16:27:04.336Z,98811.09
2022-12-22T16:29:31.645Z,98814.47
2022-12-22T16:32:23.295Z,98811.06
2022-12-22T16:34:50.708Z,98822.59
2022-12-22T16:37:18.396Z,98813.47
2022-12-22T16:39:46.644Z,98815.94
2022-12-22T16:45:04.459Z,98824.00
2022-12-22T16:47:35.593Z,98813.59
2022-12-22T16:50:03.077Z,98811.69
2022-12-22T16:52:41.473Z,98808.06
2022-12-22T16:55:16.833Z,98810.81
2022-12-22T16:57:44.826Z,98785.31
2022-12-22T17:00:21.525Z,98798.25
2022-12-22T17:02:55.382Z,98790.16
2022-12-22T17:05:31.873Z,98788.94
2022-12-22T17:08:00.831Z,98788.66
2022-12-22T17:10:28.082Z,98782.81
2022-12-22T17:12:58.528Z,98795.66
2022-12-22T17:15:25.804Z,98793.28
2022-12-22T17:17:54.112Z,98788.09
2022-12-22T17:20:23.777Z,98792.38
2022-12-22T17:22:58.901Z,98787.78
2022-12-22T17:25:31.279Z,98789.38
2022-12-22T17:28:01.959Z,98795.78
2022-12-22T17:30:29.279Z,98783.97
2022-12-22T17:32:57.046Z,98799.47
2022-12-22T17:35:26.083Z,98800.38
2022-12-22T17:37:54.566Z,98788.69
2022-12-22T17:40:24.756Z,98794.59
2022-12-22T17:42:53.674Z,98786.84
2022-12-22T17:45:21.371Z,98792.00
2022-12-22T17:47:49.178Z,98791.94
2022-12-22T17:50:20.075Z,98791.25
2022-12-22T17:52:49.260Z,98787.28
2022-12-22T17:56:05.643Z,98787.28
2022-12-22T17:58:17.233Z,98786.06
2022-12-22T18:00:44.982Z,98784.28
2022-12-22T18:03:14.699Z,98781.09
2022-12-22T18:05:47.060Z,98763.66
2022-12-22T18:08:20.182Z,98771.06
2022-12-22T18:10:48.444Z,98771.44
2022-12-22T18:13:20.238Z,98766.63
2022-12-22T18:15:47.650Z,98754.19
2022-12-22T18:18:17.078Z,98765.16
2022-12-22T18:21:07.374Z,98760.25
2022-12-22T18:23:37.187Z,98750.00
2022-12-22T18:26:08.508Z,98756.25
2022-12-22T18:28:36.965Z,98765.38
2022-12-22T18:31:04.267Z,98758.97
2022-12-22T18:33:31.945Z,98761.81
2022-12-22T18:35:59.872Z,98745.31
2022-12-22T18:38:33.386Z,98745.56
2022-12-22T18:41:00.899Z,98753.06
2022-12-22T18:43:28.490Z,98754.19
2022-12-22T18:45:55.876Z,98751.69
2022-12-22T18:48:23.488Z,98756.00
2022-12-22T18:50:50.862Z,98756.34
2022-12-22T18:53:21.433Z,98759.50
2022-12-22T18:55:48.858Z,98758.91
2022-12-22T18:58:16.485Z,98754.59
2022-12-22T19:00:44.544Z,98744.88
2022-12-22T19:03:21.778Z,98757.84
2022-12-22T19:05:50.149Z,98753.34
2022-12-22T19:08:23.272Z,98754.38
2022-12-22T19:10:56.886Z,98759.50
2022-12-22T19:13:39.541Z,98761.50
2022-12-22T19:16:07.839Z,98770.72
2022-12-22T19:18:35.540Z,98768.50
2022-12-22T19:21:02.824Z,98762.84
2022-12-22T19:23:30.474Z,98768.03
2022-12-22T19:26:08.575Z,98769.69
2022-12-22T19:28:43.066Z,98754.53
2022-12-22T19:31:20.881Z,98759.56
2022-12-22T19:33:49.620Z,98764.50
2022-12-22T19:36:21.826Z,98769.06
2022-12-22T19:38:51.085Z,98766.53
2022-12-22T19:41:43.001Z,98767.84
2022-12-22T19:44:25.073Z,98771.69
2022-12-22T19:46:53.966Z,98778.69
2022-12-22T19:49:30.011Z,98783.16
2022-12-22T19:51:58.285Z,98765.59
2022-12-22T19:54:25.873Z,98771.47
2022-12-22T19:56:55.730Z,98775.81
2022-12-22T19:59:41.404Z,98769.34
2022-12-22T20:02:21.445Z,98769.44
2022-12-22T20:04:49.961Z,98765.38
2022-12-22T20:07:19.456Z,98764.28
2022-12-22T20:09:47.380Z,98757.03
2022-12-22T20:12:23.694Z,98754.78
2022-12-22T20:14:52.115Z,98747.13
2022-12-22T20:17:19.897Z,98755.59
2022-12-22T20:19:48.053Z,98765.44
2022-12-22T20:22:21.286Z,98760.94
2022-12-22T20:24:50.679Z,98769.50
2022-12-22T20:27:22.580Z,98770.44
2022-12-22T20:29:50.338Z,98757.50
2022-12-22T20:32:22.385Z,98766.19
2022-12-22T20:34:54.883Z,98764.22
2022-12-22T20:37:22.407Z,98758.53
2022-12-22T20:39:49.970Z,98757.19
2022-12-22T20:42:23.569Z,98765.03
2022-12-22T20:45:02.569Z,98771.06
2022-12-22T20:47:34.461Z,98767.16
2022-12-22T20:50:02.269Z,98765.34
2022-12-22T20:52:29.652Z,98768.75
2022-12-22T20:54:57.200Z,98777.53
2022-12-22T20:57:25.971Z,98776.84
2022-12-22T20:59:56.480Z,98773.22
2022-12-22T21:02:28.172Z,98777.28
2022-12-22T21:04:56.590Z,98782.19
2022-12-22T21:07:24.123Z,98783.72
2022-12-22T21:09:51.713Z,98774.75
2022-12-22T21:12:19.067Z,98785.19
2022-12-22T21:14:46.641Z,98781.69
2022-12-22T21:17:18.241Z,98782.09
2022-12-22T21:19:45.837Z,98780.13
2022-12-22T21:22:13.121Z,98783.44
2022-12-22T21:24:41.901Z,98785.25
2022-12-22T21:27:17.202Z,98780.28
2022-12-22T21:29:45.063Z,98771.03
2022-12-22T21:32:15.899Z,98778.81
2022-12-22T21:34:43.551Z,98772.47
2022-12-22T21:37:19.015Z,98780.00
2022-12-22T21:39:46.645Z,98789.91
2022-12-22T21:42:18.730Z,98778.63
2022-12-22T21:44:46.569Z,98787.72
2022-12-22T21:47:16.609Z,98791.16
2022-12-22T21:49:44.429Z,98797.69
2022-12-22T21:52:11.753Z,98792.69
2022-12-22T21:54:39.570Z,98787.78
2022-12-22T21:57:06.877Z,98793.28
2022-12-22T21:59:34.417Z,98801.66
2022-12-22T22:02:01.741Z,98792.53
2022-12-22T22:04:29.473Z,98805.38
2022-12-22T22:06:57.962Z,98805.44
2022-12-22T22:09:25.551Z,98803.31
2022-12-22T22:12:11.305Z,98797.28
2022-12-22T22:14:38.849Z,98790.41
2022-12-22T22:17:06.190Z,98796.13
2022-12-22T22:19:33.801Z,98807.94
2022-12-22T22:22:01.067Z,98800.03
2022-12-22T22:24:31.102Z,98807.91
2022-12-22T22:26:59.239Z,98807.91
2022-12-22T22:29:26.837Z,98810.91
2022-12-22T22:31:54.154Z,98809.16
2022-12-22T22:34:21.751Z,98814.13
2022-12-22T22:36:49.266Z,98803.31
2022-12-22T22:39:17.039Z,98800.25
2022-12-22T22:41:44.290Z,98800.34
2022-12-22T22:44:12.341Z,98803.78
2022-12-22T22:46:40.726Z,98799.91
2022-12-22T22:49:08.689Z,98807.66
2022-12-22T22:51:36.133Z,98799.06
2022-12-22T22:54:03.929Z,98794.16
2022-12-22T22:56:31.184Z,98804.78
2022-12-22T22:58:59.578Z,98808.34
2022-12-22T23:01:27.039Z,98800.53
2022-12-22T23:03:55.788Z,98807.09
2022-12-22T23:06:23.178Z,98804.78
2022-12-22T23:08:51.007Z,98815.47
2022-12-22T23:11:18.303Z,98813.75
2022-12-22T23:13:46.064Z,98819.16
2022-12-22T23:16:13.644Z,98813.69
2022-12-22T23:18:41.364Z,98821.00
2022-12-22T23:21:09.639Z,98818.16
2022-12-22T23:23:37.350Z,98800.94
2022-12-22T23:26:04.983Z,98820.25
2022-12-22T23:28:33.800Z,98808.47
2022-12-22T23:31:01.390Z,98808.56
2022-12-22T23:33:31.845Z,98809.88
2022-12-22T23:35:59.337Z,98807.25
2022-12-22T23:38:27.033Z,98801.81
2022-12-22T23:41:02.945Z,98816.69
2022-12-22T23:43:31.063Z,98814.03
2022-12-22T23:45:58.808Z,98806.00
2022-12-22T23:48:26.351Z,98795.38
2022-12-22T23:50:53.678Z,98811.63
2022-12-22T23:53:21.348Z,98815.41
2022-12-22T23:55:49.694Z,98821.16
2022-12-22T23:58:17.799Z,98819.91
